Center, MO

6:45 AM CST on January 25, 2015 (GMT -0600)
North Eastern Ralls County WB2UFO | Change Station
CLOSE
Current Station
Personal Weather Station
Location: New London, MO
Elevation: 700 ft
Nearby Weather Stations

Elev 700 ft 39.64 °N, 91.44 °W | Updated 2 minutes ago

Rain
Rain
41.2 °F
Feels Like 41 °F
N
0.0
Wind Variable Wind from ESE
Gusts 0.0 mph

Today
High -- | Low -- °F
--% Chance of Precip.
Yesterday
High -- | Low -- °F
Precip. -- in
7:19 AM 5:17 PM
Waxing Crescent, 32% visible
Pressure 29.57 in
Visibility 8.0 miles
Clouds Scattered Clouds 2500 ft
Overcast 3500 ft
Windchill 41 °F
Dew Point 40 °F
Humidity 96%
Rainfall 0.07 in
Snow Depth Not available.
UV 0 out of 12
Pollen .20 out of 12
Air Quality Not available.
Flu Activity Not available.
SPECI KUIN 251231Z AUTO 00000KT 8SM -RA SCT025 OVC035 04/02 A2957 RMK AO2 P0001 T00390022

More Conditions Fewer Conditions

Pressure 29.57 in
Visibility 8.0 miles
Clouds Scattered Clouds 2500 ft
Overcast 3500 ft
Windchill 41 °F
Dew Point 40 °F
Humidity 96%
Rainfall 0.07 in
Snow Depth Not available.
UV 0 out of 12
Pollen .20 out of 12
Air Quality Not available.
Flu Activity Not available.
SPECI KUIN 251231Z AUTO 00000KT 8SM -RA SCT025 OVC035 04/02 A2957 RMK AO2 P0001 T00390022

More Conditions Fewer Conditions

10-Day Weather Forecast

Almanac

Astronomy

Jan. 25, 2015 Rise Set
Actual Time
Civil Twilight
Nautical Twilight
Astronomical Twilight
Moon
Length of Visible Light
Length of Day
Tomorrow will be .
, % of the Moon is Illuminated

Today's Extremes

State Highs State Lows

Community

WunderPhotos

Upload Photos

1,789,875 photos uploaded!

WunderBlogs® & News

Nearby

Air Quality

  Air Quality AQ Index Pollutant
Not available.

Snow Depth

Station Depth Elevation

Earthquake Activity

City Distance Mag. Time & Date
Minimum magnitude displayed is 2.5.

Coastal Water Temperatures

Place Temperature

Nearby Weather Stations